sensor_id;sensor_type;location;lat;lon;timestamp;temperature;humidity
38973;DHT22;25333;50.762;4.470;2022-09-03T00:01:44;18.70;92.40
38973;DHT22;25333;50.762;4.470;2022-09-03T00:04:17;18.70;92.50
38973;DHT22;25333;50.762;4.470;2022-09-03T00:06:48;18.70;92.40
38973;DHT22;25333;50.762;4.470;2022-09-03T00:09:23;18.70;92.60
38973;DHT22;25333;50.762;4.470;2022-09-03T00:12:12;18.70;92.40
38973;DHT22;25333;50.762;4.470;2022-09-03T00:17:34;18.60;92.40
38973;DHT22;25333;50.762;4.470;2022-09-03T00:22:35;18.50;92.60
38973;DHT22;25333;50.762;4.470;2022-09-03T00:25:04;18.60;92.60
38973;DHT22;25333;50.762;4.470;2022-09-03T00:27:35;18.60;92.40
38973;DHT22;25333;50.762;4.470;2022-09-03T00:30:10;18.60;92.50
38973;DHT22;25333;50.762;4.470;2022-09-03T00:33:00;18.60;92.50
38973;DHT22;25333;50.762;4.470;2022-09-03T00:35:42;18.60;92.40
38973;DHT22;25333;50.762;4.470;2022-09-03T00:38:09;18.60;92.40
38973;DHT22;25333;50.762;4.470;2022-09-03T00:46:03;18.60;92.60
38973;DHT22;25333;50.762;4.470;2022-09-03T00:49:05;18.60;92.50
38973;DHT22;25333;50.762;4.470;2022-09-03T00:54:19;18.50;92.80
38973;DHT22;25333;50.762;4.470;2022-09-03T00:57:18;18.60;92.80
38973;DHT22;25333;50.762;4.470;2022-09-03T01:00:07;18.60;92.70
38973;DHT22;25333;50.762;4.470;2022-09-03T01:02:40;18.50;92.70
38973;DHT22;25333;50.762;4.470;2022-09-03T01:05:37;18.40;92.80
38973;DHT22;25333;50.762;4.470;2022-09-03T01:14:33;18.40;93.00
38973;DHT22;25333;50.762;4.470;2022-09-03T01:31:28;18.50;93.00
38973;DHT22;25333;50.762;4.470;2022-09-03T01:34:05;18.50;93.10
38973;DHT22;25333;50.762;4.470;2022-09-03T01:37:03;18.40;93.30
38973;DHT22;25333;50.762;4.470;2022-09-03T01:45:25;18.50;93.20
38973;DHT22;25333;50.762;4.470;2022-09-03T01:53:44;18.50;93.30
38973;DHT22;25333;50.762;4.470;2022-09-03T01:56:49;18.50;93.30
38973;DHT22;25333;50.762;4.470;2022-09-03T01:59:40;18.60;93.30
38973;DHT22;25333;50.762;4.470;2022-09-03T02:07:37;18.60;93.30
38973;DHT22;25333;50.762;4.470;2022-09-03T02:10:18;18.60;93.30
38973;DHT22;25333;50.762;4.470;2022-09-03T02:12:48;18.60;93.40
38973;DHT22;25333;50.762;4.470;2022-09-03T02:15:19;18.60;93.30
38973;DHT22;25333;50.762;4.470;2022-09-03T02:17:46;18.60;93.40
38973;DHT22;25333;50.762;4.470;2022-09-03T02:20:18;18.60;93.40
38973;DHT22;25333;50.762;4.470;2022-09-03T02:22:48;18.60;93.40
38973;DHT22;25333;50.762;4.470;2022-09-03T02:25:15;18.70;93.40
38973;DHT22;25333;50.762;4.470;2022-09-03T02:27:41;18.60;93.30
38973;DHT22;25333;50.762;4.470;2022-09-03T02:30:07;18.60;93.30
38973;DHT22;25333;50.762;4.470;2022-09-03T02:32:33;18.60;93.50
38973;DHT22;25333;50.762;4.470;2022-09-03T02:34:59;18.50;93.50
38973;DHT22;25333;50.762;4.470;2022-09-03T02:37:24;18.60;93.50
38973;DHT22;25333;50.762;4.470;2022-09-03T02:39:50;18.50;93.50
38973;DHT22;25333;50.762;4.470;2022-09-03T02:42:17;18.50;93.60
38973;DHT22;25333;50.762;4.470;2022-09-03T02:44:49;18.60;93.70
38973;DHT22;25333;50.762;4.470;2022-09-03T02:47:16;18.50;93.60
38973;DHT22;25333;50.762;4.470;2022-09-03T02:49:48;18.50;94.10
38973;DHT22;25333;50.762;4.470;2022-09-03T02:52:14;18.40;94.30
38973;DHT22;25333;50.762;4.470;2022-09-03T02:54:40;18.40;94.50
38973;DHT22;25333;50.762;4.470;2022-09-03T02:57:12;18.20;95.00
38973;DHT22;25333;50.762;4.470;2022-09-03T02:59:38;18.30;95.20
38973;DHT22;25333;50.762;4.470;2022-09-03T03:02:04;18.30;95.40
38973;DHT22;25333;50.762;4.470;2022-09-03T03:04:31;18.20;95.50
38973;DHT22;25333;50.762;4.470;2022-09-03T03:06:56;18.20;95.70
38973;DHT22;25333;50.762;4.470;2022-09-03T03:09:22;18.10;95.90
38973;DHT22;25333;50.762;4.470;2022-09-03T03:11:48;17.90;96.50
38973;DHT22;25333;50.762;4.470;2022-09-03T03:14:17;18.00;96.70
38973;DHT22;25333;50.762;4.470;2022-09-03T03:16:43;18.10;96.70
38973;DHT22;25333;50.762;4.470;2022-09-03T03:19:09;18.10;96.90
38973;DHT22;25333;50.762;4.470;2022-09-03T03:21:35;18.00;97.10
38973;DHT22;25333;50.762;4.470;2022-09-03T03:24:01;18.00;97.30
38973;DHT22;25333;50.762;4.470;2022-09-03T03:26:27;17.90;97.40
38973;DHT22;25333;50.762;4.470;2022-09-03T03:28:56;17.90;97.60
38973;DHT22;25333;50.762;4.470;2022-09-03T03:31:23;17.90;97.80
38973;DHT22;25333;50.762;4.470;2022-09-03T03:33:55;17.90;97.70
38973;DHT22;25333;50.762;4.470;2022-09-03T03:36:22;18.00;97.10
38973;DHT22;25333;50.762;4.470;2022-09-03T03:38:48;18.00;96.80
38973;DHT22;25333;50.762;4.470;2022-09-03T03:41:17;18.00;96.90
38973;DHT22;25333;50.762;4.470;2022-09-03T03:43:43;18.10;96.90
38973;DHT22;25333;50.762;4.470;2022-09-03T03:46:09;18.10;97.50
38973;DHT22;25333;50.762;4.470;2022-09-03T03:48:36;18.00;98.00
38973;DHT22;25333;50.762;4.470;2022-09-03T03:51:04;18.00;98.30
38973;DHT22;25333;50.762;4.470;2022-09-03T03:53:32;17.90;98.90
38973;DHT22;25333;50.762;4.470;2022-09-03T03:56:00;17.90;99.20
38973;DHT22;25333;50.762;4.470;2022-09-03T03:58:30;17.80;99.60
38973;DHT22;25333;50.762;4.470;2022-09-03T04:01:08;17.90;99.80
38973;DHT22;25333;50.762;4.470;2022-09-03T04:03:35;17.90;99.90
38973;DHT22;25333;50.762;4.470;2022-09-03T04:06:01;18.00;99.90
38973;DHT22;25333;50.762;4.470;2022-09-03T04:08:29;17.90;99.90
38973;DHT22;25333;50.762;4.470;2022-09-03T04:10:59;17.90;99.90
38973;DHT22;25333;50.762;4.470;2022-09-03T04:13:32;17.80;99.90
38973;DHT22;25333;50.762;4.470;2022-09-03T04:18:34;17.80;99.90
38973;DHT22;25333;50.762;4.470;2022-09-03T04:21:08;17.70;99.90
38973;DHT22;25333;50.762;4.470;2022-09-03T04:23:37;17.70;99.90
38973;DHT22;25333;50.762;4.470;2022-09-03T04:26:04;17.80;99.90
38973;DHT22;25333;50.762;4.470;2022-09-03T04:28:29;17.80;99.90
38973;DHT22;25333;50.762;4.470;2022-09-03T04:31:03;17.90;99.90
38973;DHT22;25333;50.762;4.470;2022-09-03T04:33:30;18.00;99.90
38973;DHT22;25333;50.762;4.470;2022-09-03T04:36:23;18.00;99.90
38973;DHT22;25333;50.762;4.470;2022-09-03T04:38:51;17.90;99.90
38973;DHT22;25333;50.762;4.470;2022-09-03T04:41:23;17.90;99.90
38973;DHT22;25333;50.762;4.470;2022-09-03T04:43:50;17.80;99.90
38973;DHT22;25333;50.762;4.470;2022-09-03T04:46:17;17.80;99.90
38973;DHT22;25333;50.762;4.470;2022-09-03T04:48:43;17.80;99.90
38973;DHT22;25333;50.762;4.470;2022-09-03T04:51:13;17.80;99.90
38973;DHT22;25333;50.762;4.470;2022-09-03T04:53:41;17.80;99.90
38973;DHT22;25333;50.762;4.470;2022-09-03T04:58:37;17.90;99.90
38973;DHT22;25333;50.762;4.470;2022-09-03T05:01:07;17.80;99.90
38973;DHT22;25333;50.762;4.470;2022-09-03T05:03:33;17.90;99.90
38973;DHT22;25333;50.762;4.470;2022-09-03T05:05:59;17.90;99.90
38973;DHT22;25333;50.762;4.470;2022-09-03T05:08:24;17.90;99.90
38973;DHT22;25333;50.762;4.470;2022-09-03T05:10:57;17.90;99.90
38973;DHT22;25333;50.762;4.470;2022-09-03T05:13:26;17.90;99.90
38973;DHT22;25333;50.762;4.470;2022-09-03T05:15:57;17.80;99.90
38973;DHT22;25333;50.762;4.470;2022-09-03T05:18:23;17.90;99.90
38973;DHT22;25333;50.762;4.470;2022-09-03T05:20:57;18.00;99.90
38973;DHT22;25333;50.762;4.470;2022-09-03T05:23:24;18.00;99.90
38973;DHT22;25333;50.762;4.470;2022-09-03T05:25:57;18.00;99.90
38973;DHT22;25333;50.762;4.470;2022-09-03T05:28:24;18.10;99.90
38973;DHT22;25333;50.762;4.470;2022-09-03T05:31:16;18.00;99.90
38973;DHT22;25333;50.762;4.470;2022-09-03T05:33:46;17.90;99.90
38973;DHT22;25333;50.762;4.470;2022-09-03T05:36:14;17.90;99.90
38973;DHT22;25333;50.762;4.470;2022-09-03T05:38:41;17.90;99.90
38973;DHT22;25333;50.762;4.470;2022-09-03T05:41:08;18.00;99.90
38973;DHT22;25333;50.762;4.470;2022-09-03T05:43:35;18.00;99.90
38973;DHT22;25333;50.762;4.470;2022-09-03T05:46:06;18.10;99.90
38973;DHT22;25333;50.762;4.470;2022-09-03T05:48:34;18.10;99.90
38973;DHT22;25333;50.762;4.470;2022-09-03T05:51:07;18.10;99.90
38973;DHT22;25333;50.762;4.470;2022-09-03T05:53:38;18.20;99.90
38973;DHT22;25333;50.762;4.470;2022-09-03T05:56:08;18.10;99.90
38973;DHT22;25333;50.762;4.470;2022-09-03T05:58:42;18.10;99.90
38973;DHT22;25333;50.762;4.470;2022-09-03T06:01:26;18.20;99.90
38973;DHT22;25333;50.762;4.470;2022-09-03T06:04:13;18.20;99.90
38973;DHT22;25333;50.762;4.470;2022-09-03T06:06:41;18.10;99.90
38973;DHT22;25333;50.762;4.470;2022-09-03T06:09:11;18.10;99.90
38973;DHT22;25333;50.762;4.470;2022-09-03T06:11:38;18.10;99.90
38973;DHT22;25333;50.762;4.470;2022-09-03T06:14:07;18.10;99.90
38973;DHT22;25333;50.762;4.470;2022-09-03T06:16:37;18.10;99.90
38973;DHT22;25333;50.762;4.470;2022-09-03T06:19:04;18.20;99.90
38973;DHT22;25333;50.762;4.470;2022-09-03T06:21:31;18.20;99.90
38973;DHT22;25333;50.762;4.470;2022-09-03T06:23:58;18.20;99.90
38973;DHT22;25333;50.762;4.470;2022-09-03T06:26:24;18.20;99.90
38973;DHT22;25333;50.762;4.470;2022-09-03T06:28:50;18.20;99.90
38973;DHT22;25333;50.762;4.470;2022-09-03T06:31:21;18.20;99.90
38973;DHT22;25333;50.762;4.470;2022-09-03T06:33:47;18.20;99.90
38973;DHT22;25333;50.762;4.470;2022-09-03T06:36:16;18.20;99.90
38973;DHT22;25333;50.762;4.470;2022-09-03T06:38:43;18.20;99.90
38973;DHT22;25333;50.762;4.470;2022-09-03T06:41:16;18.20;99.90
38973;DHT22;25333;50.762;4.470;2022-09-03T06:43:46;18.20;99.90
38973;DHT22;25333;50.762;4.470;2022-09-03T06:46:17;18.30;99.90
38973;DHT22;25333;50.762;4.470;2022-09-03T06:48:43;18.40;99.90
38973;DHT22;25333;50.762;4.470;2022-09-03T06:51:14;18.40;99.90
38973;DHT22;25333;50.762;4.470;2022-09-03T06:53:43;18.50;99.90
38973;DHT22;25333;50.762;4.470;2022-09-03T06:56:11;18.50;99.90
38973;DHT22;25333;50.762;4.470;2022-09-03T06:58:42;18.50;99.90
38973;DHT22;25333;50.762;4.470;2022-09-03T07:01:11;18.50;99.90
38973;DHT22;25333;50.762;4.470;2022-09-03T07:03:39;18.50;99.90
38973;DHT22;25333;50.762;4.470;2022-09-03T07:06:16;18.50;99.90
38973;DHT22;25333;50.762;4.470;2022-09-03T07:08:43;18.50;99.90
38973;DHT22;25333;50.762;4.470;2022-09-03T07:11:14;18.50;99.90
38973;DHT22;25333;50.762;4.470;2022-09-03T07:13:42;18.50;99.90
38973;DHT22;25333;50.762;4.470;2022-09-03T07:16:20;18.60;99.90
38973;DHT22;25333;50.762;4.470;2022-09-03T07:18:47;18.60;99.90
38973;DHT22;25333;50.762;4.470;2022-09-03T07:21:18;18.70;99.90
38973;DHT22;25333;50.762;4.470;2022-09-03T07:23:44;18.70;99.90
38973;DHT22;25333;50.762;4.470;2022-09-03T07:26:13;18.70;99.90
38973;DHT22;25333;50.762;4.470;2022-09-03T07:28:40;18.70;99.90
38973;DHT22;25333;50.762;4.470;2022-09-03T07:31:07;18.70;99.90
38973;DHT22;25333;50.762;4.470;2022-09-03T07:33:33;18.80;99.90
38973;DHT22;25333;50.762;4.470;2022-09-03T07:36:17;18.80;99.90
38973;DHT22;25333;50.762;4.470;2022-09-03T07:38:44;18.80;99.90
38973;DHT22;25333;50.762;4.470;2022-09-03T07:41:11;18.90;99.90
38973;DHT22;25333;50.762;4.470;2022-09-03T07:43:39;18.90;99.90
38973;DHT22;25333;50.762;4.470;2022-09-03T07:46:06;18.90;99.90
38973;DHT22;25333;50.762;4.470;2022-09-03T07:48:33;18.90;99.90
38973;DHT22;25333;50.762;4.470;2022-09-03T07:50:59;19.00;99.90
38973;DHT22;25333;50.762;4.470;2022-09-03T07:53:28;19.10;99.90
38973;DHT22;25333;50.762;4.470;2022-09-03T07:56:00;19.10;99.90
38973;DHT22;25333;50.762;4.470;2022-09-03T07:58:28;19.20;99.90
38973;DHT22;25333;50.762;4.470;2022-09-03T08:00:54;19.20;99.90
38973;DHT22;25333;50.762;4.470;2022-09-03T08:03:21;19.20;99.90
38973;DHT22;25333;50.762;4.470;2022-09-03T08:05:47;19.30;99.90
38973;DHT22;25333;50.762;4.470;2022-09-03T08:08:12;19.40;99.90
38973;DHT22;25333;50.762;4.470;2022-09-03T08:10:39;19.40;99.90
38973;DHT22;25333;50.762;4.470;2022-09-03T08:13:05;19.50;99.90
38973;DHT22;25333;50.762;4.470;2022-09-03T08:15:32;19.60;99.90
38973;DHT22;25333;50.762;4.470;2022-09-03T08:17:58;19.60;99.90
38973;DHT22;25333;50.762;4.470;2022-09-03T08:20:25;19.60;99.70
38973;DHT22;25333;50.762;4.470;2022-09-03T08:22:51;19.60;99.90
38973;DHT22;25333;50.762;4.470;2022-09-03T08:25:16;19.60;99.70
38973;DHT22;25333;50.762;4.470;2022-09-03T08:27:42;19.60;99.30
38973;DHT22;25333;50.762;4.470;2022-09-03T08:30:08;19.70;99.90
38973;DHT22;25333;50.762;4.470;2022-09-03T08:32:37;19.70;99.90
38973;DHT22;25333;50.762;4.470;2022-09-03T08:35:05;19.70;99.70
38973;DHT22;25333;50.762;4.470;2022-09-03T08:37:31;19.70;99.90
38973;DHT22;25333;50.762;4.470;2022-09-03T08:39:57;19.80;99.90
38973;DHT22;25333;50.762;4.470;2022-09-03T08:42:40;19.70;99.90
38973;DHT22;25333;50.762;4.470;2022-09-03T08:45:14;19.70;99.50
38973;DHT22;25333;50.762;4.470;2022-09-03T08:50:25;19.80;99.90
38973;DHT22;25333;50.762;4.470;2022-09-03T08:52:59;19.90;99.90
38973;DHT22;25333;50.762;4.470;2022-09-03T08:55:30;19.90;99.90
38973;DHT22;25333;50.762;4.470;2022-09-03T08:58:05;20.00;99.90
38973;DHT22;25333;50.762;4.470;2022-09-03T09:00:54;20.00;99.90
38973;DHT22;25333;50.762;4.470;2022-09-03T09:14:06;20.10;99.90
38973;DHT22;25333;50.762;4.470;2022-09-03T09:16:49;20.10;99.90
38973;DHT22;25333;50.762;4.470;2022-09-03T09:19:38;20.20;99.90
38973;DHT22;25333;50.762;4.470;2022-09-03T09:22:16;20.30;99.70
38973;DHT22;25333;50.762;4.470;2022-09-03T09:24:45;20.40;99.20
38973;DHT22;25333;50.762;4.470;2022-09-03T09:27:16;20.50;99.00
38973;DHT22;25333;50.762;4.470;2022-09-03T09:29:45;20.60;99.90
38973;DHT22;25333;50.762;4.470;2022-09-03T09:32:13;20.60;99.00
38973;DHT22;25333;50.762;4.470;2022-09-03T09:34:41;20.60;98.10
38973;DHT22;25333;50.762;4.470;2022-09-03T09:37:10;20.70;97.60
38973;DHT22;25333;50.762;4.470;2022-09-03T09:39:38;20.70;98.80
38973;DHT22;25333;50.762;4.470;2022-09-03T09:42:09;20.80;98.70
38973;DHT22;25333;50.762;4.470;2022-09-03T09:44:38;20.70;98.00
38973;DHT22;25333;50.762;4.470;2022-09-03T09:47:10;20.80;98.00
38973;DHT22;25333;50.762;4.470;2022-09-03T09:52:16;20.80;98.30
38973;DHT22;25333;50.762;4.470;2022-09-03T09:54:44;20.80;97.90
38973;DHT22;25333;50.762;4.470;2022-09-03T09:57:17;20.90;97.60
38973;DHT22;25333;50.762;4.470;2022-09-03T09:59:46;20.90;98.20
38973;DHT22;25333;50.762;4.470;2022-09-03T10:02:24;20.90;98.60
38973;DHT22;25333;50.762;4.470;2022-09-03T10:04:55;21.00;98.60
38973;DHT22;25333;50.762;4.470;2022-09-03T10:07:28;21.00;98.60
38973;DHT22;25333;50.762;4.470;2022-09-03T10:12:31;21.20;97.20
38973;DHT22;25333;50.762;4.470;2022-09-03T10:15:31;21.30;97.50
38973;DHT22;25333;50.762;4.470;2022-09-03T10:23:25;21.70;98.10
38973;DHT22;25333;50.762;4.470;2022-09-03T10:26:01;21.90;97.70
38973;DHT22;25333;50.762;4.470;2022-09-03T10:28:37;22.20;98.00
38973;DHT22;25333;50.762;4.470;2022-09-03T10:31:12;22.40;97.70
38973;DHT22;25333;50.762;4.470;2022-09-03T10:36:30;22.70;97.00
38973;DHT22;25333;50.762;4.470;2022-09-03T10:39:04;22.80;96.90
38973;DHT22;25333;50.762;4.470;2022-09-03T10:44:58;22.90;97.50
38973;DHT22;25333;50.762;4.470;2022-09-03T10:50:22;23.10;97.60
38973;DHT22;25333;50.762;4.470;2022-09-03T10:53:06;23.20;96.80
38973;DHT22;25333;50.762;4.470;2022-09-03T11:06:27;23.70;95.80
38973;DHT22;25333;50.762;4.470;2022-09-03T11:09:09;24.00;96.20
38973;DHT22;25333;50.762;4.470;2022-09-03T11:11:42;24.20;95.30
38973;DHT22;25333;50.762;4.470;2022-09-03T11:14:14;24.40;94.90
38973;DHT22;25333;50.762;4.470;2022-09-03T11:16:51;24.40;93.20
38973;DHT22;25333;50.762;4.470;2022-09-03T11:19:40;24.30;93.30
38973;DHT22;25333;50.762;4.470;2022-09-03T11:22:11;24.20;92.70
38973;DHT22;25333;50.762;4.470;2022-09-03T11:24:38;24.20;93.00
38973;DHT22;25333;50.762;4.470;2022-09-03T11:32:57;24.00;93.40
38973;DHT22;25333;50.762;4.470;2022-09-03T11:35:39;23.90;93.60
38973;DHT22;25333;50.762;4.470;2022-09-03T11:45:49;24.10;93.80
38973;DHT22;25333;50.762;4.470;2022-09-03T11:48:46;24.20;93.40
38973;DHT22;25333;50.762;4.470;2022-09-03T11:51:28;24.20;92.60
38973;DHT22;25333;50.762;4.470;2022-09-03T11:56:20;24.20;92.20
38973;DHT22;25333;50.762;4.470;2022-09-03T11:58:46;24.20;92.10
38973;DHT22;25333;50.762;4.470;2022-09-03T12:01:14;24.30;92.00
38973;DHT22;25333;50.762;4.470;2022-09-03T12:04:03;24.40;92.30
38973;DHT22;25333;50.762;4.470;2022-09-03T12:18:11;24.30;91.00
38973;DHT22;25333;50.762;4.470;2022-09-03T12:20:46;24.30;92.20
38973;DHT22;25333;50.762;4.470;2022-09-03T12:23:39;24.50;92.20
38973;DHT22;25333;50.762;4.470;2022-09-03T12:26:19;24.70;92.60
38973;DHT22;25333;50.762;4.470;2022-09-03T12:28:48;24.70;91.80
38973;DHT22;25333;50.762;4.470;2022-09-03T12:31:20;24.70;90.30
38973;DHT22;25333;50.762;4.470;2022-09-03T12:33:48;24.70;90.40
38973;DHT22;25333;50.762;4.470;2022-09-03T12:36:14;24.50;90.80
38973;DHT22;25333;50.762;4.470;2022-09-03T12:38:40;24.40;90.60
38973;DHT22;25333;50.762;4.470;2022-09-03T12:41:22;24.30;90.60
38973;DHT22;25333;50.762;4.470;2022-09-03T12:43:54;24.40;91.20
38973;DHT22;25333;50.762;4.470;2022-09-03T12:46:30;24.50;90.70
38973;DHT22;25333;50.762;4.470;2022-09-03T12:49:02;24.60;91.20
38973;DHT22;25333;50.762;4.470;2022-09-03T12:51:40;24.70;90.20
38973;DHT22;25333;50.762;4.470;2022-09-03T12:54:09;24.50;90.10
38973;DHT22;25333;50.762;4.470;2022-09-03T12:56:42;24.60;91.10
38973;DHT22;25333;50.762;4.470;2022-09-03T12:59:12;24.60;90.70
38973;DHT22;25333;50.762;4.470;2022-09-03T13:01:46;24.70;91.10
38973;DHT22;25333;50.762;4.470;2022-09-03T13:04:32;24.70;90.90
38973;DHT22;25333;50.762;4.470;2022-09-03T13:07:29;24.80;90.80
38973;DHT22;25333;50.762;4.470;2022-09-03T13:10:04;24.90;90.40
38973;DHT22;25333;50.762;4.470;2022-09-03T13:12:43;24.90;89.40
38973;DHT22;25333;50.762;4.470;2022-09-03T13:15:20;24.90;89.80
38973;DHT22;25333;50.762;4.470;2022-09-03T13:20:34;25.00;88.60
38973;DHT22;25333;50.762;4.470;2022-09-03T13:23:38;25.00;89.10
38973;DHT22;25333;50.762;4.470;2022-09-03T13:29:24;25.10;87.20
38973;DHT22;25333;50.762;4.470;2022-09-03T13:31:59;25.10;87.70
38973;DHT22;25333;50.762;4.470;2022-09-03T13:34:31;25.10;87.90
38973;DHT22;25333;50.762;4.470;2022-09-03T13:39:54;25.20;88.90
38973;DHT22;25333;50.762;4.470;2022-09-03T13:45:15;25.40;87.70
38973;DHT22;25333;50.762;4.470;2022-09-03T13:47:47;25.30;85.60
38973;DHT22;25333;50.762;4.470;2022-09-03T13:53:41;25.30;87.10
38973;DHT22;25333;50.762;4.470;2022-09-03T13:58:49;25.30;86.00
38973;DHT22;25333;50.762;4.470;2022-09-03T14:01:22;25.20;84.60
38973;DHT22;25333;50.762;4.470;2022-09-03T14:03:59;25.20;85.20
38973;DHT22;25333;50.762;4.470;2022-09-03T14:06:38;25.10;85.50
38973;DHT22;25333;50.762;4.470;2022-09-03T14:09:19;25.20;87.20
38973;DHT22;25333;50.762;4.470;2022-09-03T14:15:02;25.20;88.20
38973;DHT22;25333;50.762;4.470;2022-09-03T14:23:01;25.20;85.30
38973;DHT22;25333;50.762;4.470;2022-09-03T14:25:27;25.30;88.70
38973;DHT22;25333;50.762;4.470;2022-09-03T14:28:13;25.30;87.60
38973;DHT22;25333;50.762;4.470;2022-09-03T14:39:38;25.20;85.90
38973;DHT22;25333;50.762;4.470;2022-09-03T14:56:48;25.30;84.60
38973;DHT22;25333;50.762;4.470;2022-09-03T15:02:12;25.30;85.00
38973;DHT22;25333;50.762;4.470;2022-09-03T15:07:35;25.30;85.80
38973;DHT22;25333;50.762;4.470;2022-09-03T15:12:58;25.40;85.80
38973;DHT22;25333;50.762;4.470;2022-09-03T15:15:32;25.40;88.30
38973;DHT22;25333;50.762;4.470;2022-09-03T15:29:24;25.40;90.10
38973;DHT22;25333;50.762;4.470;2022-09-03T15:36:58;25.10;89.80
38973;DHT22;25333;50.762;4.470;2022-09-03T15:39:32;25.00;90.20
38973;DHT22;25333;50.762;4.470;2022-09-03T15:42:13;25.10;90.70
38973;DHT22;25333;50.762;4.470;2022-09-03T15:44:50;25.10;90.10
38973;DHT22;25333;50.762;4.470;2022-09-03T15:47:36;25.00;91.30
38973;DHT22;25333;50.762;4.470;2022-09-03T15:50:09;25.10;90.60
38973;DHT22;25333;50.762;4.470;2022-09-03T15:52:51;25.00;90.30
38973;DHT22;25333;50.762;4.470;2022-09-03T15:55:33;25.00;90.50
38973;DHT22;25333;50.762;4.470;2022-09-03T16:03:11;25.10;88.10
38973;DHT22;25333;50.762;4.470;2022-09-03T16:05:45;25.10;88.80
38973;DHT22;25333;50.762;4.470;2022-09-03T16:08:28;25.10;88.90
38973;DHT22;25333;50.762;4.470;2022-09-03T16:11:21;25.00;88.10
38973;DHT22;25333;50.762;4.470;2022-09-03T16:19:24;24.70;90.10
38973;DHT22;25333;50.762;4.470;2022-09-03T16:27:33;24.70;90.00
38973;DHT22;25333;50.762;4.470;2022-09-03T16:30:13;24.70;89.50
38973;DHT22;25333;50.762;4.470;2022-09-03T16:41:42;24.50;90.50
38973;DHT22;25333;50.762;4.470;2022-09-03T16:44:10;24.50;90.50
38973;DHT22;25333;50.762;4.470;2022-09-03T16:49:39;24.30;90.40
38973;DHT22;25333;50.762;4.470;2022-09-03T16:52:25;24.20;90.40
38973;DHT22;25333;50.762;4.470;2022-09-03T17:00:13;24.00;90.40
38973;DHT22;25333;50.762;4.470;2022-09-03T17:03:01;23.90;90.60
38973;DHT22;25333;50.762;4.470;2022-09-03T17:24:36;23.70;90.50
38973;DHT22;25333;50.762;4.470;2022-09-03T17:27:16;23.60;90.50
38973;DHT22;25333;50.762;4.470;2022-09-03T17:35:46;23.50;90.50
38973;DHT22;25333;50.762;4.470;2022-09-03T17:38:43;23.50;90.50
38973;DHT22;25333;50.762;4.470;2022-09-03T17:49:28;23.40;90.30
38973;DHT22;25333;50.762;4.470;2022-09-03T17:52:07;23.40;90.70
38973;DHT22;25333;50.762;4.470;2022-09-03T17:54:49;23.30;91.00
38973;DHT22;25333;50.762;4.470;2022-09-03T17:57:40;23.10;90.90
38973;DHT22;25333;50.762;4.470;2022-09-03T18:00:10;23.10;90.90
38973;DHT22;25333;50.762;4.470;2022-09-03T18:05:31;23.00;91.50
38973;DHT22;25333;50.762;4.470;2022-09-03T18:15:38;22.60;92.50
38973;DHT22;25333;50.762;4.470;2022-09-03T18:18:20;22.60;92.70
38973;DHT22;25333;50.762;4.470;2022-09-03T18:20:54;22.40;92.40
38973;DHT22;25333;50.762;4.470;2022-09-03T18:26:59;22.10;93.10
38973;DHT22;25333;50.762;4.470;2022-09-03T18:29:49;22.10;93.30
38973;DHT22;25333;50.762;4.470;2022-09-03T18:32:37;22.00;93.10
38973;DHT22;25333;50.762;4.470;2022-09-03T18:35:21;21.80;93.80
38973;DHT22;25333;50.762;4.470;2022-09-03T18:38:08;21.80;93.80
38973;DHT22;25333;50.762;4.470;2022-09-03T18:44:03;21.70;93.80
38973;DHT22;25333;50.762;4.470;2022-09-03T18:47:26;21.70;93.70
38973;DHT22;25333;50.762;4.470;2022-09-03T18:50:26;21.70;93.80
38973;DHT22;25333;50.762;4.470;2022-09-03T19:00:06;21.70;93.80
38973;DHT22;25333;50.762;4.470;2022-09-03T19:12:08;21.70;93.90
38973;DHT22;25333;50.762;4.470;2022-09-03T19:15:19;21.70;93.80
38973;DHT22;25333;50.762;4.470;2022-09-03T19:21:18;21.40;94.20
38973;DHT22;25333;50.762;4.470;2022-09-03T19:24:04;21.50;94.60
38973;DHT22;25333;50.762;4.470;2022-09-03T19:26:58;21.50;94.40
38973;DHT22;25333;50.762;4.470;2022-09-03T19:29:59;21.40;94.60
38973;DHT22;25333;50.762;4.470;2022-09-03T19:33:06;21.20;94.50
38973;DHT22;25333;50.762;4.470;2022-09-03T19:36:06;21.20;94.50
38973;DHT22;25333;50.762;4.470;2022-09-03T19:39:02;21.00;94.90
38973;DHT22;25333;50.762;4.470;2022-09-03T19:51:23;21.00;95.60
38973;DHT22;25333;50.762;4.470;2022-09-03T19:54:08;20.90;95.50
38973;DHT22;25333;50.762;4.470;2022-09-03T19:56:55;20.70;96.00
38973;DHT22;25333;50.762;4.470;2022-09-03T19:59:41;20.60;96.10
38973;DHT22;25333;50.762;4.470;2022-09-03T20:02:28;20.60;96.10
38973;DHT22;25333;50.762;4.470;2022-09-03T20:05:21;20.60;96.00
38973;DHT22;25333;50.762;4.470;2022-09-03T20:08:06;20.60;96.00
38973;DHT22;25333;50.762;4.470;2022-09-03T20:10:55;20.50;96.20
38973;DHT22;25333;50.762;4.470;2022-09-03T20:13:21;20.50;96.10
38973;DHT22;25333;50.762;4.470;2022-09-03T20:24:30;20.10;96.80
38973;DHT22;25333;50.762;4.470;2022-09-03T20:30:18;19.80;97.10
38973;DHT22;25333;50.762;4.470;2022-09-03T20:38:08;19.70;97.70
38973;DHT22;25333;50.762;4.470;2022-09-03T20:40:44;19.50;98.10
38973;DHT22;25333;50.762;4.470;2022-09-03T20:46:16;19.50;98.20
38973;DHT22;25333;50.762;4.470;2022-09-03T20:48:55;19.40;98.30
38973;DHT22;25333;50.762;4.470;2022-09-03T20:52:20;19.40;98.70
38973;DHT22;25333;50.762;4.470;2022-09-03T20:54:28;19.30;98.70
38973;DHT22;25333;50.762;4.470;2022-09-03T21:00:02;19.20;99.00
38973;DHT22;25333;50.762;4.470;2022-09-03T21:03:10;19.10;99.20
38973;DHT22;25333;50.762;4.470;2022-09-03T21:05:53;19.00;99.50
38973;DHT22;25333;50.762;4.470;2022-09-03T21:11:18;19.00;99.80
38973;DHT22;25333;50.762;4.470;2022-09-03T21:13:56;18.90;99.90
38973;DHT22;25333;50.762;4.470;2022-09-03T21:27:04;19.00;99.60
38973;DHT22;25333;50.762;4.470;2022-09-03T21:29:42;19.00;99.70
38973;DHT22;25333;50.762;4.470;2022-09-03T21:32:16;19.00;99.80
38973;DHT22;25333;50.762;4.470;2022-09-03T21:35:02;18.90;99.60
38973;DHT22;25333;50.762;4.470;2022-09-03T21:37:34;18.90;99.90
38973;DHT22;25333;50.762;4.470;2022-09-03T21:40:00;18.90;99.80
38973;DHT22;25333;50.762;4.470;2022-09-03T21:42:37;18.90;99.80
38973;DHT22;25333;50.762;4.470;2022-09-03T21:45:20;19.00;99.70
38973;DHT22;25333;50.762;4.470;2022-09-03T21:47:52;19.00;99.70
38973;DHT22;25333;50.762;4.470;2022-09-03T21:53:16;18.80;99.80
38973;DHT22;25333;50.762;4.470;2022-09-03T22:01:18;18.70;99.80
38973;DHT22;25333;50.762;4.470;2022-09-03T22:03:46;18.70;99.70
38973;DHT22;25333;50.762;4.470;2022-09-03T22:06:21;18.70;99.60
38973;DHT22;25333;50.762;4.470;2022-09-03T22:09:10;18.60;99.80
38973;DHT22;25333;50.762;4.470;2022-09-03T22:11:54;18.50;99.90
38973;DHT22;25333;50.762;4.470;2022-09-03T22:14:22;18.50;99.90